Time;durP1;ratioP1;P1;durP2;ratioP2;P2;SDS_P1;SDS_P2;PMS_P1;PMS_P2;Temp;Humidity;BMP_temperature;BMP_pressure;BME280_temperature;BME280_humidity;BME280_pressure;Samples;Min_cycle;Max_cycle;Signal;HPM_P1;HPM_P2
2024/01/13 00:01:20;;;;;;;63.93;21.40;;;;;;;-8.32;100.00;94762.00;5031006;28;20054;-63
2024/01/13 00:03:47;;;;;;;63.30;21.58;;;;;;;-8.42;100.00;94758.66;5032286;28;20044;-66
2024/01/13 00:06:15;;;;;;;67.28;21.35;;;;;;;-8.41;100.00;94765.53;5031540;28;20095;-64
2024/01/13 00:08:47;;;;;;;71.82;21.95;;;;;;;-8.44;100.00;94757.03;5032046;28;20390;-66
2024/01/13 00:11:13;;;;;;;60.70;22.33;;;;;;;-8.51;100.00;94756.56;5031487;28;20403;-65
2024/01/13 00:13:40;;;;;;;67.93;22.50;;;;;;;-8.52;100.00;94754.97;5032160;28;20044;-64
2024/01/13 00:16:07;;;;;;;71.47;22.58;;;;;;;-8.53;100.00;94749.91;5031611;28;20046;-66
2024/01/13 00:18:34;;;;;;;80.72;28.42;;;;;;;-8.56;100.00;94751.25;5029620;28;20565;-63
2024/01/13 00:21:07;;;;;;;85.50;29.60;;;;;;;-8.53;100.00;94747.25;5031629;28;20107;-64
2024/01/13 00:23:35;;;;;;;65.70;21.70;;;;;;;-8.54;100.00;94749.13;5030772;28;20717;-67
2024/01/13 00:26:02;;;;;;;64.03;20.87;;;;;;;-8.67;100.00;94739.06;5031894;28;20042;-64
2024/01/13 00:28:28;;;;;;;71.75;23.35;;;;;;;-8.57;100.00;94743.53;5030877;28;20049;-67
2024/01/13 00:31:04;;;;;;;61.03;19.95;;;;;;;-8.80;100.00;94745.00;5031612;28;20617;-66
2024/01/13 00:33:32;;;;;;;79.38;23.52;;;;;;;-8.83;100.00;94738.38;5030868;28;20652;-65
2024/01/13 00:35:59;;;;;;;128.52;29.23;;;;;;;-8.85;100.00;94740.50;5030141;28;20037;-64
2024/01/13 00:38:26;;;;;;;100.07;24.70;;;;;;;-8.86;100.00;94737.03;5030996;28;20056;-63
2024/01/13 00:41:03;;;;;;;62.75;20.88;;;;;;;-8.82;100.00;94728.50;5031615;28;20038;-63
2024/01/13 00:43:32;;;;;;;94.80;25.35;;;;;;;-8.86;100.00;94725.59;5029361;28;20041;-67
2024/01/13 00:45:59;;;;;;;75.28;23.52;;;;;;;-9.00;100.00;94725.38;5013034;28;20415;-68
2024/01/13 00:48:26;;;;;;;84.55;21.45;;;;;;;-9.01;100.00;94720.34;5019783;28;20120;-66
2024/01/13 00:51:09;;;;;;;66.80;20.20;;;;;;;-9.09;100.00;94716.41;5031451;28;20394;-64
2024/01/13 00:53:37;;;;;;;66.28;23.13;;;;;;;-9.05;100.00;94720.91;5029646;28;20676;-67
2024/01/13 00:56:06;;;;;;;71.38;23.67;;;;;;;-8.91;100.00;94721.09;5031039;28;20400;-64
2024/01/13 00:58:34;;;;;;;84.50;24.63;;;;;;;-8.80;100.00;94713.06;5030192;28;20699;-65
2024/01/13 01:01:13;;;;;;;85.88;23.25;;;;;;;-8.73;100.00;94713.56;5029411;28;20056;-64
2024/01/13 01:03:46;;;;;;;94.20;23.50;;;;;;;-8.69;100.00;94712.75;5031309;28;20375;-64
2024/01/13 01:06:15;;;;;;;77.30;22.27;;;;;;;-8.84;100.00;94713.63;5030589;28;20677;-67
2024/01/13 01:08:42;;;;;;;73.00;22.77;;;;;;;-8.55;100.00;94718.28;5030977;28;20045;-64
2024/01/13 01:11:10;;;;;;;75.38;22.08;;;;;;;-8.72;100.00;94717.81;5030232;28;20037;-61
2024/01/13 01:13:38;;;;;;;83.20;22.58;;;;;;;-8.81;100.00;94714.13;5030902;28;20041;-63
2024/01/13 01:16:06;;;;;;;159.57;26.00;;;;;;;-9.11;100.00;94721.19;5030343;28;20050;-64
2024/01/13 01:18:34;;;;;;;103.13;21.45;;;;;;;-8.87;100.00;94711.50;5029609;28;20330;-63
2024/01/13 01:21:12;;;;;;;81.60;24.02;;;;;;;-8.62;100.00;94714.31;5030377;28;20536;-63
2024/01/13 01:23:40;;;;;;;66.88;19.65;;;;;;;-9.06;100.00;94711.31;5030678;28;20044;-63
2024/01/13 01:26:07;;;;;;;68.93;21.02;;;;;;;-9.05;100.00;94707.59;5030751;28;20465;-64
2024/01/13 01:28:34;;;;;;;68.17;22.07;;;;;;;-9.05;100.00;94712.13;5029918;28;21623;-64
2024/01/13 01:31:06;;;;;;;67.43;20.88;;;;;;;-8.88;100.00;94711.78;5030417;28;20190;-66
2024/01/13 01:33:35;;;;;;;79.55;21.80;;;;;;;-8.82;100.00;94717.88;5029739;28;20107;-63
2024/01/13 01:36:03;;;;;;;73.30;22.77;;;;;;;-8.95;100.00;94716.59;5030136;28;20045;-63
2024/01/13 01:38:30;;;;;;;90.38;20.67;;;;;;;-8.82;100.00;94713.34;5030135;28;20047;-63
2024/01/13 01:41:10;;;;;;;65.77;22.43;;;;;;;-8.91;100.00;94699.84;5030027;28;20033;-60
2024/01/13 01:43:38;;;;;;;87.57;22.35;;;;;;;-8.72;100.00;94710.63;5028848;28;20051;-62
2024/01/13 01:46:05;;;;;;;70.07;22.10;;;;;;;-8.86;100.00;94701.66;5016237;28;20498;-63
2024/01/13 01:48:36;;;;;;;61.45;21.27;;;;;;;-8.74;100.00;94699.47;5029714;28;20041;-63
2024/01/13 01:51:10;;;;;;;57.65;20.73;;;;;;;-8.75;100.00;94702.41;5029926;28;20045;-63
2024/01/13 01:53:37;;;;;;;69.10;23.10;;;;;;;-8.76;100.00;94698.16;5029120;28;20119;-65
2024/01/13 01:56:10;;;;;;;61.85;20.70;;;;;;;-8.74;100.00;94694.16;5029811;28;20053;-65
2024/01/13 01:58:39;;;;;;;56.95;19.55;;;;;;;-8.92;100.00;94695.56;5029208;28;20998;-63
2024/01/13 02:01:07;;;;;;;70.53;19.73;;;;;;;-9.19;100.00;94693.31;5029746;28;20038;-63
2024/01/13 02:03:36;;;;;;;72.05;18.10;;;;;;;-9.23;100.00;94686.94;5028763;28;20153;-65
2024/01/13 02:06:04;;;;;;;71.70;21.53;;;;;;;-9.14;100.00;94681.84;5017309;28;20116;-62
2024/01/13 02:08:31;;;;;;;64.03;19.58;;;;;;;-9.26;100.00;94679.50;5029262;28;20478;-62
2024/01/13 02:11:11;;;;;;;62.78;20.15;;;;;;;-9.24;100.00;94688.00;5029966;28;20388;-63
2024/01/13 02:13:42;;;;;;;78.70;23.70;;;;;;;-9.08;100.00;94676.22;5028824;28;20323;-65
2024/01/13 02:16:10;;;;;;;70.43;21.88;;;;;;;-9.02;100.00;94670.91;5029132;28;20053;-59
2024/01/13 02:18:37;;;;;;;81.27;22.80;;;;;;;-8.90;100.00;94672.16;5029279;28;20402;-65
2024/01/13 02:21:12;;;;;;;70.07;20.30;;;;;;;-9.06;100.00;94662.66;5029684;28;20087;-63
2024/01/13 02:23:41;;;;;;;71.32;20.90;;;;;;;-9.35;100.00;94658.03;5028769;28;20482;-62
2024/01/13 02:26:08;;;;;;;62.45;18.50;;;;;;;-9.20;100.00;94656.34;5029679;28;20089;-63
2024/01/13 02:28:35;;;;;;;70.85;19.98;;;;;;;-9.26;100.00;94658.25;5028399;28;20903;-64
2024/01/13 02:31:16;;;;;;;63.47;21.17;;;;;;;-9.22;100.00;94650.53;5028556;28;20654;-63
2024/01/13 02:33:48;;;;;;;65.47;20.33;;;;;;;-9.27;100.00;94648.69;5029699;28;20075;-63
2024/01/13 02:36:16;;;;;;;57.58;19.42;;;;;;;-9.26;100.00;94640.41;5028626;28;20486;-66
2024/01/13 02:38:43;;;;;;;62.70;18.92;;;;;;;-9.21;100.00;94642.28;5029428;28;20088;-62
2024/01/13 02:41:10;;;;;;;63.25;21.10;;;;;;;-9.21;100.00;94639.63;5028781;28;20087;-61
2024/01/13 02:43:37;;;;;;;61.87;19.17;;;;;;;-9.26;100.00;94631.66;5028574;28;20394;-63
2024/01/13 02:46:04;;;;;;;68.05;20.65;;;;;;;-9.24;100.00;94626.84;5013387;28;20410;-63
2024/01/13 02:48:44;;;;;;;66.35;20.50;;;;;;;-9.28;100.00;94631.94;5015939;28;20107;-62
2024/01/13 02:51:14;;;;;;;65.90;20.52;;;;;;;-9.17;100.00;94629.25;5028685;28;20060;-63
2024/01/13 02:53:43;;;;;;;73.38;20.65;;;;;;;-9.08;100.00;94630.25;5029255;28;20110;-63
2024/01/13 02:56:10;;;;;;;66.53;19.37;;;;;;;-9.07;100.00;94632.63;5027380;28;20045;-60
2024/01/13 02:58:36;;;;;;;56.85;19.17;;;;;;;-9.06;100.00;94628.88;5029185;28;20479;-64
2024/01/13 03:01:15;;;;;;;65.28;20.00;;;;;;;-9.31;100.00;94615.75;5028530;28;20061;-64
2024/01/13 03:03:49;;;;;;;97.03;19.85;;;;;;;-9.47;100.00;94620.34;5029294;28;20056;-62
2024/01/13 03:06:17;;;;;;;70.78;20.48;;;;;;;-9.33;100.00;94617.88;5028466;28;20057;-63
2024/01/13 03:08:46;;;;;;;66.80;19.10;;;;;;;-9.25;100.00;94606.69;5029279;28;20049;-66
2024/01/13 03:11:13;;;;;;;67.05;21.75;;;;;;;-9.54;100.00;94607.31;5028479;28;20114;-63
2024/01/13 03:13:43;;;;;;;66.10;19.75;;;;;;;-9.53;100.00;94600.16;5029186;28;20102;-63
2024/01/13 03:16:10;;;;;;;60.55;18.30;;;;;;;-9.58;100.00;94592.22;5030561;28;20084;-63
2024/01/13 03:18:37;;;;;;;50.08;14.48;;;;;;;-9.75;100.00;94600.53;5032541;28;20033;-65
2024/01/13 03:21:10;;;;;;;77.93;18.43;;;;;;;-9.72;100.00;94590.13;5033233;28;20654;-65
2024/01/13 03:23:39;;;;;;;78.10;19.10;;;;;;;-9.69;100.00;94589.59;5031905;28;20066;-63
2024/01/13 03:26:06;;;;;;;51.17;17.23;;;;;;;-9.74;100.00;94586.94;5032841;28;20574;-65
2024/01/13 03:28:33;;;;;;;62.15;17.95;;;;;;;-9.92;100.00;94580.41;5032155;28;20052;-63
2024/01/13 03:31:08;;;;;;;61.90;16.58;;;;;;;-9.94;100.00;94584.38;5032769;28;20044;-63
2024/01/13 03:33:37;;;;;;;53.63;16.87;;;;;;;-10.05;100.00;94588.91;5031534;28;20579;-62
2024/01/13 03:36:04;;;;;;;47.47;15.35;;;;;;;-10.13;100.00;94578.84;5032550;28;20075;-62
2024/01/13 03:38:31;;;;;;;47.15;16.08;;;;;;;-10.26;100.00;94567.72;5032082;28;20043;-62
2024/01/13 03:41:08;;;;;;;58.00;18.73;;;;;;;-10.09;100.00;94567.41;5032412;28;20150;-64
2024/01/13 03:43:35;;;;;;;49.30;16.90;;;;;;;-10.07;100.00;94559.19;5029659;28;20898;-65
2024/01/13 03:46:02;;;;;;;59.73;18.30;;;;;;;-10.16;100.00;94560.78;5013782;28;20497;-65
2024/01/13 03:48:29;;;;;;;50.00;15.63;;;;;;;-10.14;100.00;94559.47;5032643;28;20053;-65
2024/01/13 03:50:56;;;;;;;62.45;17.75;;;;;;;-10.17;100.00;94559.22;5024578;28;20482;-63
2024/01/13 03:53:23;;;;;;;56.65;17.50;;;;;;;-9.98;100.00;94559.41;5031805;28;20037;-63
2024/01/13 03:55:50;;;;;;;64.72;19.58;;;;;;;-9.69;100.00;94549.75;5031919;28;20037;-63
2024/01/13 03:58:17;;;;;;;61.77;18.47;;;;;;;-9.97;100.00;94551.19;5031747;28;20075;-62
2024/01/13 04:00:44;;;;;;;46.50;14.75;;;;;;;-10.21;100.00;94547.56;5032108;28;20054;-65
2024/01/13 04:03:10;;;;;;;54.95;16.73;;;;;;;-10.32;100.00;94558.22;5031537;28;20050;-63
2024/01/13 04:05:37;;;;;;;48.78;16.05;;;;;;;-10.27;100.00;94555.50;5032139;28;20045;-62
2024/01/13 04:08:05;;;;;;;57.63;16.45;;;;;;;-10.24;100.00;94543.56;5032101;28;20383;-63
2024/01/13 04:10:31;;;;;;;51.80;16.43;;;;;;;-10.15;100.00;94539.31;5031736;28;20426;-65
2024/01/13 04:12:59;;;;;;;54.33;16.65;;;;;;;-10.25;100.00;94541.97;5032058;28;20055;-62
2024/01/13 04:15:26;;;;;;;47.80;16.95;;;;;;;-10.39;100.00;94541.00;5031564;28;20090;-65
2024/01/13 04:17:53;;;;;;;49.80;16.15;;;;;;;-10.49;100.00;94539.16;5031374;28;20418;-63
2024/01/13 04:20:21;;;;;;;54.35;16.40;;;;;;;-10.51;100.00;94541.28;5031310;28;20053;-65
2024/01/13 04:22:48;;;;;;;50.80;16.63;;;;;;;-10.50;100.00;94546.31;5032005;28;20071;-62
2024/01/13 04:25:15;;;;;;;49.80;16.33;;;;;;;-10.57;100.00;94542.34;5031067;28;20056;-63
2024/01/13 04:27:42;;;;;;;41.97;14.27;;;;;;;-10.51;100.00;94544.72;5013062;28;20415;-63
2024/01/13 04:30:09;;;;;;;43.25;12.63;;;;;;;-10.59;100.00;94537.31;5030219;28;20037;-65
2024/01/13 04:32:36;;;;;;;47.20;14.77;;;;;;;-10.38;100.00;94535.41;5030741;28;20350;-63
2024/01/13 04:35:04;;;;;;;30.23;12.30;;;;;;;-10.62;100.00;94524.59;5017466;28;20046;-64
2024/01/13 04:37:30;;;;;;;52.10;15.40;;;;;;;-10.63;100.00;94530.94;5030866;28;20045;-63
2024/01/13 04:39:57;;;;;;;50.97;16.60;;;;;;;-10.61;100.00;94538.63;5031586;28;20052;-63
2024/01/13 04:42:24;;;;;;;42.60;13.40;;;;;;;-10.61;100.00;94541.28;5030658;28;20044;-62
2024/01/13 04:44:51;;;;;;;55.17;17.77;;;;;;;-10.46;100.00;94541.28;5031468;28;20072;-63
2024/01/13 04:47:18;;;;;;;52.47;16.00;;;;;;;-10.36;100.00;94538.59;5030485;28;20429;-66
2024/01/13 04:49:44;;;;;;;52.00;15.98;;;;;;;-10.28;100.00;94534.53;5031444;28;20040;-65
2024/01/13 04:52:11;;;;;;;31.08;10.43;;;;;;;-10.55;100.00;94541.00;5030602;28;20406;-61
2024/01/13 04:54:38;;;;;;;45.13;15.15;;;;;;;-10.53;100.00;94538.88;5031282;28;20052;-63
2024/01/13 04:57:05;;;;;;;50.58;16.00;;;;;;;-10.65;100.00;94546.31;5030833;28;20551;-66
2024/01/13 04:59:31;;;;;;;46.87;15.83;;;;;;;-10.61;100.00;94544.72;5017871;28;20049;-62
2024/01/13 05:01:58;;;;;;;47.50;15.52;;;;;;;-10.65;100.00;94539.16;5031003;28;20045;-66
2024/01/13 05:04:26;;;;;;;47.25;15.35;;;;;;;-10.70;100.00;94535.75;5030720;28;20452;-63
2024/01/13 05:06:53;;;;;;;48.60;15.48;;;;;;;-10.70;100.00;94531.22;5030942;28;20044;-62
2024/01/13 05:09:20;;;;;;;41.25;14.45;;;;;;;-10.69;100.00;94537.31;5030447;28;20401;-62
2024/01/13 05:11:47;;;;;;;46.40;15.20;;;;;;;-10.69;100.00;94540.75;5030652;28;20045;-63
2024/01/13 05:14:15;;;;;;;30.65;11.05;;;;;;;-10.76;100.00;94537.59;5024748;28;20119;-62
2024/01/13 05:16:41;;;;;;;45.10;15.20;;;;;;;-10.71;100.00;94542.09;5013344;28;20633;-64
2024/01/13 05:19:09;;;;;;;40.60;13.95;;;;;;;-10.69;100.00;94539.97;5030702;28;20052;-62
2024/01/13 05:21:36;;;;;;;50.38;18.80;;;;;;;-10.59;100.00;94544.47;5028373;28;20042;-65
2024/01/13 05:24:03;;;;;;;45.03;15.20;;;;;;;-10.56;100.00;94538.63;5030803;28;20048;-62
2024/01/13 05:26:30;;;;;;;48.60;15.23;;;;;;;-10.66;100.00;94536.78;5030033;28;20053;-62
2024/01/13 05:28:56;;;;;;;37.08;12.55;;;;;;;-10.87;100.00;94533.34;5030279;28;20033;-65
2024/01/13 05:31:23;;;;;;;42.80;13.15;;;;;;;-10.86;100.00;94545.56;5029900;28;20059;-62
2024/01/13 05:33:50;;;;;;;41.70;13.85;;;;;;;-10.86;100.00;94545.56;5030468;28;20052;-62
2024/01/13 05:36:17;;;;;;;33.10;12.20;;;;;;;-10.83;100.00;94542.34;5028495;28;20115;-63
2024/01/13 05:38:44;;;;;;;32.20;11.25;;;;;;;-10.89;100.00;94536.25;5028679;28;20091;-62
2024/01/13 05:41:11;;;;;;;51.13;16.25;;;;;;;-10.85;100.00;94539.97;5029637;28;20110;-62
2024/01/13 05:43:37;;;;;;;44.28;14.48;;;;;;;-10.85;100.00;94547.13;5030170;28;20037;-62
2024/01/13 05:46:04;;;;;;;38.10;12.90;;;;;;;-10.86;100.00;94546.34;5030200;28;20041;-65
2024/01/13 05:48:31;;;;;;;42.03;14.30;;;;;;;-10.97;100.00;94558.00;5029791;28;20041;-63
2024/01/13 05:50:58;;;;;;;43.47;14.68;;;;;;;-10.88;100.00;94553.75;5028928;28;20045;-65
2024/01/13 05:53:25;;;;;;;46.05;16.40;;;;;;;-10.77;100.00;94556.41;5028000;28;20049;-62
2024/01/13 05:55:51;;;;;;;41.35;13.48;;;;;;;-10.89;100.00;94554.81;5030076;28;20059;-63
2024/01/13 05:58:18;;;;;;;39.90;13.40;;;;;;;-11.01;100.00;94556.16;5029424;28;20073;-62
2024/01/13 06:00:45;;;;;;;45.13;14.43;;;;;;;-11.02;100.00;94559.88;5030218;28;20410;-64
2024/01/13 06:03:12;;;;;;;64.97;21.17;;;;;;;-11.34;100.00;94560.88;5029516;28;20041;-63
2024/01/13 06:05:39;;;;;;;58.95;20.60;;;;;;;-11.36;100.00;94573.59;5030008;28;20045;-62
2024/01/13 06:08:06;;;;;;;48.67;16.65;;;;;;;-11.23;100.00;94575.72;5029848;28;20053;-62
2024/01/13 06:10:34;;;;;;;41.50;13.52;;;;;;;-10.97;100.00;94571.25;5029164;28;20045;-65
2024/01/13 06:13:01;;;;;;;45.83;14.30;;;;;;;-10.82;100.00;94578.44;5028411;28;20060;-64
2024/01/13 06:15:28;;;;;;;44.75;15.55;;;;;;;-10.76;100.00;94584.53;5023792;28;20058;-65
2024/01/13 06:17:56;;;;;;;48.55;14.98;;;;;;;-10.72;100.00;94570.47;5026673;28;20399;-61
2024/01/13 06:20:23;;;;;;;43.28;14.88;;;;;;;-10.67;100.00;94567.00;5022702;28;20099;-62
2024/01/13 06:22:50;;;;;;;37.15;13.68;;;;;;;-10.61;100.00;94576.56;5026162;28;20068;-64
2024/01/13 06:25:17;;;;;;;49.33;16.23;;;;;;;-10.63;100.00;94576.03;5026591;28;20046;-61
2024/01/13 06:27:44;;;;;;;48.65;17.10;;;;;;;-10.65;100.00;94570.97;5027204;28;20052;-61
2024/01/13 06:30:12;;;;;;;41.22;14.00;;;;;;;-10.82;100.00;94572.31;5024876;28;20057;-62
2024/01/13 06:32:39;;;;;;;39.17;13.77;;;;;;;-10.71;100.00;94568.59;5026502;28;20171;-61
2024/01/13 06:35:07;;;;;;;40.25;13.90;;;;;;;-10.67;100.00;94567.00;5022387;28;20045;-62
2024/01/13 06:37:34;;;;;;;41.70;13.70;;;;;;;-10.63;100.00;94565.41;5025290;28;20037;-63
2024/01/13 06:40:00;;;;;;;41.40;13.52;;;;;;;-10.66;100.00;94558.78;5019122;28;20041;-62
2024/01/13 06:42:28;;;;;;;41.42;13.70;;;;;;;-10.77;100.00;94551.09;5023399;28;20512;-62
2024/01/13 06:44:55;;;;;;;35.55;11.73;;;;;;;-10.83;100.00;94545.00;5027509;28;20052;-62
2024/01/13 06:47:22;;;;;;;40.22;14.13;;;;;;;-10.86;100.00;94553.50;5028851;28;20417;-63
2024/01/13 06:49:49;;;;;;;36.67;12.37;;;;;;;-11.06;100.00;94549.78;5028351;28;20091;-63
2024/01/13 06:52:16;;;;;;;42.35;12.23;;;;;;;-11.02;100.00;94549.28;5019957;28;20048;-65
2024/01/13 06:54:43;;;;;;;41.40;13.10;;;;;;;-11.03;100.00;94553.75;5033974;28;20379;-64
2024/01/13 06:57:10;;;;;;;39.88;12.40;;;;;;;-11.06;100.00;94546.34;5028676;28;20056;-64
2024/01/13 06:59:37;;;;;;;37.75;12.05;;;;;;;-11.18;100.00;94546.59;5028884;28;20104;-63
2024/01/13 07:02:04;;;;;;;34.20;12.23;;;;;;;-11.16;100.00;94546.34;5028477;28;20478;-64
2024/01/13 07:04:35;;;;;;;32.72;12.38;;;;;;;-11.14;100.00;94545.00;5028646;28;20099;-64
2024/01/13 07:07:03;;;;;;;41.70;12.75;;;;;;;-11.03;100.00;94545.81;5028712;28;20056;-63
2024/01/13 07:09:30;;;;;;;39.95;13.40;;;;;;;-10.98;100.00;94550.34;5028528;28;20118;-64
2024/01/13 07:11:57;;;;;;;35.72;12.82;;;;;;;-10.86;100.00;94537.59;5028856;28;20042;-65
2024/01/13 07:14:24;;;;;;;37.47;13.90;;;;;;;-11.07;100.00;94531.50;5023602;28;20054;-64
2024/01/13 07:16:51;;;;;;;40.40;13.27;;;;;;;-10.97;100.00;94536.00;5018603;28;20042;-65
2024/01/13 07:19:17;;;;;;;43.00;14.90;;;;;;;-10.88;100.00;94524.59;5028299;28;20049;-64
2024/01/13 07:21:45;;;;;;;45.22;14.10;;;;;;;-10.85;100.00;94531.22;5028628;28;20038;-63
2024/01/13 07:24:12;;;;;;;39.92;13.70;;;;;;;-10.77;100.00;94537.84;5028213;28;20049;-64
2024/01/13 07:26:40;;;;;;;40.37;12.07;;;;;;;-10.69;100.00;94535.44;5028643;28;20120;-64
2024/01/13 07:29:07;;;;;;;61.28;21.42;;;;;;;-10.86;100.00;94533.09;5027044;28;20404;-63
2024/01/13 07:31:34;;;;;;;49.65;17.42;;;;;;;-10.97;100.00;94536.78;5028124;28;20063;-64
2024/01/13 07:34:01;;;;;;;60.53;17.73;;;;;;;-10.95;100.00;94520.63;5027422;28;20072;-64
2024/01/13 07:36:28;;;;;;;56.58;17.15;;;;;;;-10.75;100.00;94528.56;5027875;28;20049;-64
2024/01/13 07:38:55;;;;;;;49.10;15.23;;;;;;;-10.63;100.00;94525.63;5027489;28;20042;-64
2024/01/13 07:41:22;;;;;;;54.80;17.52;;;;;;;-10.55;100.00;94530.41;5027997;28;20087;-64
2024/01/13 07:43:49;;;;;;;64.72;18.65;;;;;;;-10.66;100.00;94526.19;5026207;28;20045;-64
2024/01/13 07:46:16;;;;;;;57.05;17.98;;;;;;;-10.59;100.00;94536.50;5016091;28;20054;-66
2024/01/13 07:48:43;;;;;;;49.42;16.77;;;;;;;-10.60;100.00;94530.41;5028683;28;20041;-66
2024/01/13 07:51:10;;;;;;;59.87;19.80;;;;;;;-10.57;100.00;94535.16;5027771;28;20045;-64
2024/01/13 07:53:47;;;;;;;46.85;15.50;;;;;;;-10.59;100.00;94536.50;5027047;28;20045;-65
2024/01/13 07:56:14;;;;;;;50.38;15.63;;;;;;;-10.55;100.00;94537.56;5028312;28;20049;-64
2024/01/13 07:58:41;;;;;;;51.53;16.80;;;;;;;-10.60;100.00;94532.25;5028202;28;20388;-64
2024/01/13 08:01:08;;;;;;;49.22;16.65;;;;;;;-10.54;100.00;94520.56;5029105;28;20037;-64
2024/01/13 08:03:48;;;;;;;46.80;16.67;;;;;;;-10.28;100.00;94518.63;5031046;28;20049;-64
2024/01/13 08:06:16;;;;;;;47.70;15.07;;;;;;;-10.30;100.00;94524.25;5029863;28;20045;-64
2024/01/13 08:08:43;;;;;;;42.25;13.77;;;;;;;-10.25;100.00;94513.59;5032078;28;20057;-64
2024/01/13 08:11:10;;;;;;;46.42;14.95;;;;;;;-9.74;100.00;94519.75;5031479;28;20053;-61
2024/01/13 08:13:51;;;;;;;48.78;14.85;;;;;;;-7.74;100.00;94515.41;5031660;28;20556;-64
2024/01/13 08:16:18;;;;;;;48.57;14.93;;;;;;;-5.78;100.00;94505.84;5030365;28;20042;-64
2024/01/13 08:18:44;;;;;;;48.40;16.88;;;;;;;-5.66;100.00;94503.44;5030487;28;20044;-65
2024/01/13 08:21:11;;;;;;;56.60;18.95;;;;;;;-4.63;100.00;94492.06;5030872;28;20056;-66
2024/01/13 08:23:52;;;;;;;45.95;15.45;;;;;;;-4.17;100.00;94483.97;5031925;28;20052;-65
2024/01/13 08:26:19;;;;;;;47.63;17.48;;;;;;;-3.12;100.00;94487.72;5031233;28;20067;-66
2024/01/13 08:28:46;;;;;;;46.23;18.20;;;;;;;-2.76;95.08;94487.41;5031494;28;20050;-65
2024/01/13 08:31:13;;;;;;;44.05;18.58;;;;;;;-1.22;87.74;94479.47;5030931;28;20045;-65
2024/01/13 08:33:55;;;;;;;38.47;16.38;;;;;;;-1.56;79.80;94475.88;5030459;28;20118;-65
2024/01/13 08:36:22;;;;;;;43.55;17.65;;;;;;;-1.85;85.04;94460.47;5029855;28;20046;-65
2024/01/13 08:38:49;;;;;;;43.92;19.30;;;;;;;-0.79;74.54;94470.28;5031580;28;20044;-65
2024/01/13 08:41:16;;;;;;;37.43;16.70;;;;;;;0.32;69.75;94462.50;5031211;28;20543;-66
2024/01/13 08:43:58;;;;;;;39.75;17.17;;;;;;;0.90;65.45;94457.72;5027513;28;20041;-66
2024/01/13 08:46:24;;;;;;;34.47;15.88;;;;;;;0.31;64.71;94460.94;5027095;28;20510;-66
2024/01/13 08:48:51;;;;;;;35.63;16.02;;;;;;;-0.79;71.74;94469.50;5022689;28;20041;-66
2024/01/13 08:51:18;;;;;;;39.28;18.08;;;;;;;-0.28;70.50;94467.44;5030988;28;20404;-67
2024/01/13 08:54:00;;;;;;;35.67;14.97;;;;;;;0.57;67.08;94472.19;5031397;28;20041;-67
2024/01/13 08:56:26;;;;;;;30.95;13.88;;;;;;;-0.01;64.87;94471.44;5031033;28;20046;-66
2024/01/13 08:58:53;;;;;;;33.63;14.80;;;;;;;-0.64;71.44;94474.31;5030911;28;20053;-65
2024/01/13 09:01:20;;;;;;;32.30;14.38;;;;;;;1.08;66.57;94471.78;5030635;28;20041;-65
2024/01/13 09:04:01;;;;;;;35.88;17.42;;;;;;;2.82;61.71;94475.13;5030485;28;20049;-66
2024/01/13 09:06:28;;;;;;;32.03;15.17;;;;;;;4.03;54.72;94481.53;5030573;28;20379;-67
2024/01/13 09:08:55;;;;;;;28.38;14.13;;;;;;;1.97;56.18;94472.69;5029224;28;20045;-66
2024/01/13 09:11:21;;;;;;;29.60;15.02;;;;;;;2.53;54.71;94475.25;5030533;28;20494;-66
2024/01/13 09:14:05;;;;;;;27.25;12.82;;;;;;;0.38;57.34;94475.44;5030459;28;20053;-68
2024/01/13 09:16:31;;;;;;;27.83;13.45;;;;;;;2.16;54.28;94467.38;5030465;28;20412;-67
2024/01/13 09:18:58;;;;;;;28.83;13.53;;;;;;;2.47;55.95;94476.66;5030788;28;20042;-66
2024/01/13 09:21:25;;;;;;;26.35;13.15;;;;;;;3.62;53.13;94473.75;5030481;28;20045;-66
2024/01/13 09:24:06;;;;;;;28.83;14.05;;;;;;;3.75;49.39;94463.56;5031222;28;20042;-67
2024/01/13 09:26:38;;;;;;;29.10;13.93;;;;;;;2.90;51.49;94468.75;5030566;28;20052;-66
2024/01/13 09:29:06;;;;;;;24.63;12.50;;;;;;;3.63;52.64;94472.63;5029570;28;20463;-67
2024/01/13 09:31:33;;;;;;;25.33;11.67;;;;;;;4.20;49.25;94468.28;5030440;28;20484;-66
2024/01/13 09:34:09;;;;;;;28.23;13.52;;;;;;;2.78;54.61;94475.06;5030606;28;20056;-66
2024/01/13 09:36:39;;;;;;;30.30;13.98;;;;;;;2.20;54.98;94479.09;5012364;28;20696;-66
2024/01/13 09:39:10;;;;;;;29.92;13.48;;;;;;;1.52;58.28;94473.81;5025013;28;20034;-68
2024/01/13 09:41:43;;;;;;;28.65;13.10;;;;;;;2.50;56.17;94481.38;5029832;28;20050;-68
2024/01/13 09:44:21;;;;;;;29.10;12.57;;;;;;;2.29;57.72;94478.13;5024029;28;20446;-64
2024/01/13 09:46:52;;;;;;;29.92;13.13;;;;;;;1.35;60.56;94477.59;5011055;28;20034;-66
2024/01/13 09:49:23;;;;;;;27.80;12.38;;;;;;;1.31;64.46;94480.19;5025089;28;20049;-68
2024/01/13 09:51:52;;;;;;;29.55;12.98;;;;;;;1.87;63.84;94481.31;5029637;28;20447;-67
2024/01/13 09:54:27;;;;;;;32.28;12.90;;;;;;;2.85;59.42;94480.66;5028711;28;20056;-68
2024/01/13 09:56:56;;;;;;;27.40;11.80;;;;;;;3.44;58.25;94488.91;5029088;28;20135;-68
2024/01/13 09:59:28;;;;;;;32.47;13.40;;;;;;;4.02;54.72;94485.38;5027980;28;20056;-67
2024/01/13 10:01:59;;;;;;;30.83;12.65;;;;;;;2.96;57.19;94489.81;5028970;28;20049;-64
2024/01/13 10:04:26;;;;;;;28.67;12.23;;;;;;;2.54;60.27;94487.66;5028037;28;20123;-66
2024/01/13 10:06:53;;;;;;;28.42;11.85;;;;;;;3.04;57.79;94492.69;5028847;28;20075;-63
2024/01/13 10:09:20;;;;;;;30.60;13.20;;;;;;;3.69;56.04;94490.19;5028856;28;20072;-64
2024/01/13 10:12:06;;;;;;;28.98;12.60;;;;;;;2.83;56.90;94477.50;5029559;28;20044;-63
2024/01/13 10:14:38;;;;;;;33.10;13.85;;;;;;;3.01;58.17;94461.63;5028211;28;20653;-67
2024/01/13 10:17:07;;;;;;;26.73;12.07;;;;;;;3.58;58.57;94465.56;5029703;28;20047;-65
2024/01/13 10:19:36;;;;;;;27.90;12.63;;;;;;;3.26;59.03;94461.38;5028402;28;20598;-66
2024/01/13 10:22:05;;;;;;;28.43;12.60;;;;;;;2.20;61.32;94462.06;5029344;28;20045;-66
2024/01/13 10:24:33;;;;;;;33.60;14.52;;;;;;;1.87;63.02;94459.66;5028159;28;20433;-65
2024/01/13 10:27:00;;;;;;;27.63;12.43;;;;;;;0.11;80.59;94459.91;5028937;28;20041;-66
2024/01/13 10:29:28;;;;;;;31.73;12.73;;;;;;;2.02;69.90;94458.13;5028340;28;20053;-69
2024/01/13 10:31:55;;;;;;;35.10;13.85;;;;;;;2.83;64.87;94444.97;5028950;28;20041;-66
2024/01/13 10:34:22;;;;;;;32.33;13.40;;;;;;;2.53;66.59;94431.91;5028417;28;20044;-66
2024/01/13 10:36:49;;;;;;;30.92;12.90;;;;;;;3.18;62.97;94426.00;5015497;28;20047;-66
2024/01/13 10:39:17;;;;;;;32.78;13.43;;;;;;;4.56;59.75;94422.66;5027970;28;20045;-65
2024/01/13 10:41:50;;;;;;;38.72;16.33;;;;;;;5.14;55.53;94418.84;5020637;28;20045;-65
2024/01/13 10:44:21;;;;;;;31.88;14.30;;;;;;;5.26;54.59;94415.13;5028036;28;20058;-66
2024/01/13 10:46:49;;;;;;;33.83;14.53;;;;;;;4.83;54.44;94419.97;5028132;28;20449;-65
2024/01/13 10:49:31;;;;;;;30.35;13.65;;;;;;;6.60;51.33;94413.44;5026693;28;20058;-66
2024/01/13 10:51:59;;;;;;;30.38;14.23;;;;;;;8.83;44.42;94408.00;5040302;28;20674;-66
2024/01/13 10:54:31;;;;;;;27.65;13.32;;;;;;;8.81;43.99;94419.31;5027767;28;20067;-66
2024/01/13 10:56:57;;;;;;;28.73;14.30;;;;;;;9.73;43.42;94414.81;5028008;28;20041;-66
2024/01/13 10:59:30;;;;;;;28.83;14.40;;;;;;;9.05;40.92;94397.81;5042708;28;20227;-66
2024/01/13 11:01:58;;;;;;;31.05;15.57;;;;;;;8.91;41.37;94390.38;5028625;28;20044;-66
2024/01/13 11:04:27;;;;;;;27.20;13.93;;;;;;;8.51;42.96;94386.88;5014789;28;20057;-66
2024/01/13 11:06:54;;;;;;;25.48;13.38;;;;;;;7.58;43.35;94382.78;5028029;28;20044;-66
2024/01/13 11:09:23;;;;;;;30.20;16.98;;;;;;;6.54;46.04;94376.75;5027840;28;20418;-67
2024/01/13 11:12:10;;;;;;;27.03;13.90;;;;;;;5.99;49.57;94360.31;5023319;28;20119;-67
2024/01/13 11:14:50;;;;;;;27.98;13.45;;;;;;;6.26;49.49;94363.69;5020538;28;20406;-67
2024/01/13 11:17:18;;;;;;;33.28;17.00;;;;;;;5.95;48.27;94357.56;5027006;28;20413;-65